sensor_id;sensor_type;location;lat;lon;timestamp;pressure;altitude;pressure_sealevel;temperature;humidity
46682;BME280;34101;53.430;-2.224;2023-04-23T00:00:12;99712.81;;;12.86;59.88
46682;BME280;34101;53.430;-2.224;2023-04-23T00:02:43;99713.47;;;12.91;59.98
46682;BME280;34101;53.430;-2.224;2023-04-23T00:05:11;99712.51;;;12.97;59.66
46682;BME280;34101;53.430;-2.224;2023-04-23T00:07:41;99711.40;;;13.04;59.55
46682;BME280;34101;53.430;-2.224;2023-04-23T00:10:09;99708.66;;;13.06;59.48
46682;BME280;34101;53.430;-2.224;2023-04-23T00:12:38;99709.11;;;13.10;59.56
46682;BME280;34101;53.430;-2.224;2023-04-23T00:15:06;99706.56;;;13.13;59.68
46682;BME280;34101;53.430;-2.224;2023-04-23T00:17:34;99708.05;;;13.13;59.61
46682;BME280;34101;53.430;-2.224;2023-04-23T00:20:01;99707.97;;;13.14;59.56
46682;BME280;34101;53.430;-2.224;2023-04-23T00:22:34;99707.28;;;13.14;59.63
46682;BME280;34101;53.430;-2.224;2023-04-23T00:25:02;99706.17;;;13.13;59.54
46682;BME280;34101;53.430;-2.224;2023-04-23T00:27:29;99706.67;;;13.10;59.52
46682;BME280;34101;53.430;-2.224;2023-04-23T00:30:02;99703.79;;;13.05;59.46
46682;BME280;34101;53.430;-2.224;2023-04-23T00:32:30;99700.62;;;13.04;59.50
46682;BME280;34101;53.430;-2.224;2023-04-23T00:34:57;99697.02;;;12.97;59.22
46682;BME280;34101;53.430;-2.224;2023-04-23T00:37:24;99693.94;;;12.93;59.20
46682;BME280;34101;53.430;-2.224;2023-04-23T00:39:52;99689.72;;;12.76;59.46
46682;BME280;34101;53.430;-2.224;2023-04-23T00:42:18;99687.88;;;12.68;60.19
46682;BME280;34101;53.430;-2.224;2023-04-23T00:44:46;99683.18;;;12.48;60.76
46682;BME280;34101;53.430;-2.224;2023-04-23T00:47:15;99680.89;;;12.43;61.80
46682;BME280;34101;53.430;-2.224;2023-04-23T00:49:48;99678.25;;;12.32;62.36
46682;BME280;34101;53.430;-2.224;2023-04-23T00:52:15;99675.64;;;12.22;62.90
46682;BME280;34101;53.430;-2.224;2023-04-23T00:54:42;99672.59;;;12.13;63.76
46682;BME280;34101;53.430;-2.224;2023-04-23T00:57:10;99667.88;;;12.14;64.39
46682;BME280;34101;53.430;-2.224;2023-04-23T00:59:37;99667.08;;;12.03;64.50
46682;BME280;34101;53.430;-2.224;2023-04-23T01:02:04;99665.49;;;11.90;64.65
46682;BME280;34101;53.430;-2.224;2023-04-23T01:04:32;99663.57;;;11.83;64.95
46682;BME280;34101;53.430;-2.224;2023-04-23T01:07:02;99662.15;;;11.78;65.19
46682;BME280;34101;53.430;-2.224;2023-04-23T01:09:30;99658.87;;;11.76;65.31
46682;BME280;34101;53.430;-2.224;2023-04-23T01:11:57;99654.65;;;11.77;65.68
46682;BME280;34101;53.430;-2.224;2023-04-23T01:14:25;99652.87;;;11.80;65.92
46682;BME280;34101;53.430;-2.224;2023-04-23T01:16:53;99650.55;;;11.78;65.79
46682;BME280;34101;53.430;-2.224;2023-04-23T01:19:20;99649.90;;;11.80;66.02
46682;BME280;34101;53.430;-2.224;2023-04-23T01:21:49;99648.71;;;11.84;66.21
46682;BME280;34101;53.430;-2.224;2023-04-23T01:24:17;99645.17;;;11.83;66.41
46682;BME280;34101;53.430;-2.224;2023-04-23T01:26:44;99642.02;;;11.87;66.63
46682;BME280;34101;53.430;-2.224;2023-04-23T01:29:12;99641.14;;;11.95;66.85
46682;BME280;34101;53.430;-2.224;2023-04-23T01:31:40;99638.25;;;12.00;66.80
46682;BME280;34101;53.430;-2.224;2023-04-23T01:34:07;99636.61;;;12.07;66.69
46682;BME280;34101;53.430;-2.224;2023-04-23T01:36:35;99636.20;;;12.14;66.42
46682;BME280;34101;53.430;-2.224;2023-04-23T01:39:03;99633.98;;;12.13;66.22
46682;BME280;34101;53.430;-2.224;2023-04-23T01:41:30;99632.02;;;12.16;66.35
46682;BME280;34101;53.430;-2.224;2023-04-23T01:43:58;99632.76;;;12.22;66.29
46682;BME280;34101;53.430;-2.224;2023-04-23T01:46:26;99631.86;;;12.25;66.13
46682;BME280;34101;53.430;-2.224;2023-04-23T01:48:54;99629.98;;;12.24;66.28
46682;BME280;34101;53.430;-2.224;2023-04-23T01:51:21;99628.79;;;12.23;66.41
46682;BME280;34101;53.430;-2.224;2023-04-23T01:53:48;99630.05;;;12.24;66.33
46682;BME280;34101;53.430;-2.224;2023-04-23T01:56:19;99626.34;;;12.21;66.05
46682;BME280;34101;53.430;-2.224;2023-04-23T01:58:48;99621.99;;;12.12;66.41
46682;BME280;34101;53.430;-2.224;2023-04-23T02:02:18;99621.89;;;12.15;66.56
46682;BME280;34101;53.430;-2.224;2023-04-23T02:04:55;99620.87;;;12.14;66.53
46682;BME280;34101;53.430;-2.224;2023-04-23T02:09:40;99618.52;;;12.18;66.67
46682;BME280;34101;53.430;-2.224;2023-04-23T02:12:08;99617.80;;;12.20;66.62
46682;BME280;34101;53.430;-2.224;2023-04-23T02:14:41;99614.38;;;12.24;66.66
46682;BME280;34101;53.430;-2.224;2023-04-23T02:17:08;99611.27;;;12.28;66.45
46682;BME280;34101;53.430;-2.224;2023-04-23T02:19:40;99608.26;;;12.32;66.39
46682;BME280;34101;53.430;-2.224;2023-04-23T02:22:08;99604.66;;;12.35;65.97
46682;BME280;34101;53.430;-2.224;2023-04-23T02:24:35;99599.59;;;12.35;65.95
46682;BME280;34101;53.430;-2.224;2023-04-23T02:27:03;99600.47;;;12.40;65.88
46682;BME280;34101;53.430;-2.224;2023-04-23T02:29:31;99597.22;;;12.42;65.73
46682;BME280;34101;53.430;-2.224;2023-04-23T02:31:58;99596.90;;;12.42;65.69
46682;BME280;34101;53.430;-2.224;2023-04-23T02:34:25;99599.39;;;12.37;65.43
46682;BME280;34101;53.430;-2.224;2023-04-23T02:36:52;99599.07;;;12.37;65.84
46682;BME280;34101;53.430;-2.224;2023-04-23T02:39:20;99596.52;;;12.39;65.62
46682;BME280;34101;53.430;-2.224;2023-04-23T02:41:47;99595.82;;;12.40;65.62
46682;BME280;34101;53.430;-2.224;2023-04-23T02:44:14;99594.08;;;12.42;65.35
46682;BME280;34101;53.430;-2.224;2023-04-23T02:46:41;99592.62;;;12.44;65.51
46682;BME280;34101;53.430;-2.224;2023-04-23T02:49:08;99591.03;;;12.46;65.15
46682;BME280;34101;53.430;-2.224;2023-04-23T02:51:41;99591.85;;;12.47;65.11
46682;BME280;34101;53.430;-2.224;2023-04-23T02:54:09;99588.43;;;12.49;65.01
46682;BME280;34101;53.430;-2.224;2023-04-23T02:56:36;99585.61;;;12.51;64.99
46682;BME280;34101;53.430;-2.224;2023-04-23T02:59:03;99586.82;;;12.53;64.75
46682;BME280;34101;53.430;-2.224;2023-04-23T03:01:30;99585.92;;;12.54;64.58
46682;BME280;34101;53.430;-2.224;2023-04-23T03:03:58;99586.17;;;12.55;64.56
46682;BME280;34101;53.430;-2.224;2023-04-23T03:06:26;99585.55;;;12.59;64.64
46682;BME280;34101;53.430;-2.224;2023-04-23T03:08:58;99588.68;;;12.60;64.35
46682;BME280;34101;53.430;-2.224;2023-04-23T03:11:26;99583.82;;;12.60;64.33
46682;BME280;34101;53.430;-2.224;2023-04-23T03:13:53;99580.55;;;12.61;64.07
46682;BME280;34101;53.430;-2.224;2023-04-23T03:16:21;99580.55;;;12.62;63.89
46682;BME280;34101;53.430;-2.224;2023-04-23T03:18:48;99581.28;;;12.59;63.52
46682;BME280;34101;53.430;-2.224;2023-04-23T03:21:15;99584.56;;;12.59;63.71
46682;BME280;34101;53.430;-2.224;2023-04-23T03:23:43;99582.85;;;12.63;63.57
46682;BME280;34101;53.430;-2.224;2023-04-23T03:26:10;99583.16;;;12.63;63.45
46682;BME280;34101;53.430;-2.224;2023-04-23T03:28:38;99581.25;;;12.65;63.52
46682;BME280;34101;53.430;-2.224;2023-04-23T03:31:05;99578.55;;;12.65;63.33
46682;BME280;34101;53.430;-2.224;2023-04-23T03:33:32;99578.90;;;12.66;63.04
46682;BME280;34101;53.430;-2.224;2023-04-23T03:36:00;99576.45;;;12.65;63.00
46682;BME280;34101;53.430;-2.224;2023-04-23T03:38:28;99577.68;;;12.67;63.01
46682;BME280;34101;53.430;-2.224;2023-04-23T03:40:55;99573.35;;;12.65;62.94
46682;BME280;34101;53.430;-2.224;2023-04-23T03:43:23;99569.00;;;12.64;62.78
46682;BME280;34101;53.430;-2.224;2023-04-23T03:45:49;99565.33;;;12.63;62.87
46682;BME280;34101;53.430;-2.224;2023-04-23T03:48:21;99562.85;;;12.61;63.18
46682;BME280;34101;53.430;-2.224;2023-04-23T03:50:49;99560.78;;;12.57;63.50
46682;BME280;34101;53.430;-2.224;2023-04-23T03:53:16;99560.94;;;12.52;63.39
46682;BME280;34101;53.430;-2.224;2023-04-23T03:55:43;99565.61;;;12.48;63.62
46682;BME280;34101;53.430;-2.224;2023-04-23T03:58:10;99567.45;;;12.45;63.75
46682;BME280;34101;53.430;-2.224;2023-04-23T04:00:37;99567.53;;;12.44;63.82
46682;BME280;34101;53.430;-2.224;2023-04-23T04:03:04;99567.85;;;12.43;63.48
46682;BME280;34101;53.430;-2.224;2023-04-23T04:05:31;99565.51;;;12.42;63.53
46682;BME280;34101;53.430;-2.224;2023-04-23T04:07:58;99564.04;;;12.41;63.27
46682;BME280;34101;53.430;-2.224;2023-04-23T04:10:26;99562.99;;;12.38;63.54
46682;BME280;34101;53.430;-2.224;2023-04-23T04:12:54;99563.38;;;12.39;63.45
46682;BME280;34101;53.430;-2.224;2023-04-23T04:15:22;99565.14;;;12.39;63.45
46682;BME280;34101;53.430;-2.224;2023-04-23T04:17:49;99569.35;;;12.39;63.03
46682;BME280;34101;53.430;-2.224;2023-04-23T04:20:18;99566.20;;;12.42;63.11
46682;BME280;34101;53.430;-2.224;2023-04-23T04:22:45;99567.12;;;12.41;62.97
46682;BME280;34101;53.430;-2.224;2023-04-23T04:25:12;99564.12;;;12.39;62.93
46682;BME280;34101;53.430;-2.224;2023-04-23T04:27:39;99562.82;;;12.39;63.00
46682;BME280;34101;53.430;-2.224;2023-04-23T04:30:08;99559.03;;;12.42;62.90
46682;BME280;34101;53.430;-2.224;2023-04-23T04:32:36;99558.73;;;12.44;63.12
46682;BME280;34101;53.430;-2.224;2023-04-23T04:35:04;99558.60;;;12.46;62.74
46682;BME280;34101;53.430;-2.224;2023-04-23T04:37:32;99555.96;;;12.45;62.62
46682;BME280;34101;53.430;-2.224;2023-04-23T04:39:59;99556.81;;;12.44;62.24
46682;BME280;34101;53.430;-2.224;2023-04-23T04:42:27;99558.00;;;12.43;62.33
46682;BME280;34101;53.430;-2.224;2023-04-23T04:44:54;99555.18;;;12.43;62.23
46682;BME280;34101;53.430;-2.224;2023-04-23T04:47:21;99558.16;;;12.37;62.35
46682;BME280;34101;53.430;-2.224;2023-04-23T04:49:48;99557.73;;;12.34;62.73
46682;BME280;34101;53.430;-2.224;2023-04-23T04:52:16;99559.00;;;12.16;61.96
46682;BME280;34101;53.430;-2.224;2023-04-23T04:54:47;99556.75;;;12.09;62.96
46682;BME280;34101;53.430;-2.224;2023-04-23T04:57:14;99560.23;;;12.11;63.00
46682;BME280;34101;53.430;-2.224;2023-04-23T04:59:42;99559.90;;;12.11;62.68
46682;BME280;34101;53.430;-2.224;2023-04-23T05:02:09;99560.81;;;12.12;62.65
46682;BME280;34101;53.430;-2.224;2023-04-23T05:04:36;99560.21;;;12.13;62.75
46682;BME280;34101;53.430;-2.224;2023-04-23T05:07:04;99559.56;;;12.10;62.42
46682;BME280;34101;53.430;-2.224;2023-04-23T05:09:36;99558.04;;;12.09;63.01
46682;BME280;34101;53.430;-2.224;2023-04-23T05:12:03;99559.65;;;12.04;62.61
46682;BME280;34101;53.430;-2.224;2023-04-23T05:14:30;99561.61;;;12.02;62.84
46682;BME280;34101;53.430;-2.224;2023-04-23T05:16:58;99564.67;;;12.06;63.26
46682;BME280;34101;53.430;-2.224;2023-04-23T05:19:25;99563.09;;;12.11;63.38
46682;BME280;34101;53.430;-2.224;2023-04-23T05:21:53;99565.44;;;12.16;63.54
46682;BME280;34101;53.430;-2.224;2023-04-23T05:24:20;99566.85;;;12.17;63.43
46682;BME280;34101;53.430;-2.224;2023-04-23T05:26:47;99568.59;;;12.21;63.76
46682;BME280;34101;53.430;-2.224;2023-04-23T05:29:14;99573.01;;;12.22;63.60
46682;BME280;34101;53.430;-2.224;2023-04-23T05:31:42;99569.09;;;12.14;63.49
46682;BME280;34101;53.430;-2.224;2023-04-23T05:34:09;99570.09;;;12.08;63.96
46682;BME280;34101;53.430;-2.224;2023-04-23T05:36:36;99569.38;;;12.11;63.65
46682;BME280;34101;53.430;-2.224;2023-04-23T05:39:04;99569.58;;;12.03;64.43
46682;BME280;34101;53.430;-2.224;2023-04-23T05:41:31;99572.73;;;12.01;64.69
46682;BME280;34101;53.430;-2.224;2023-04-23T05:43:58;99573.84;;;12.00;64.86
46682;BME280;34101;53.430;-2.224;2023-04-23T05:46:25;99573.92;;;12.00;65.29
46682;BME280;34101;53.430;-2.224;2023-04-23T05:48:52;99577.40;;;12.02;65.05
46682;BME280;34101;53.430;-2.224;2023-04-23T05:51:20;99577.28;;;12.02;64.94
46682;BME280;34101;53.430;-2.224;2023-04-23T05:53:47;99576.22;;;11.98;64.38
46682;BME280;34101;53.430;-2.224;2023-04-23T05:56:19;99578.79;;;11.97;64.07
46682;BME280;34101;53.430;-2.224;2023-04-23T05:58:46;99577.12;;;12.00;64.32
46682;BME280;34101;53.430;-2.224;2023-04-23T06:01:14;99576.19;;;12.05;64.43
46682;BME280;34101;53.430;-2.224;2023-04-23T06:03:41;99573.59;;;12.12;64.26
46682;BME280;34101;53.430;-2.224;2023-04-23T06:06:09;99574.12;;;12.17;64.05
46682;BME280;34101;53.430;-2.224;2023-04-23T06:08:36;99574.27;;;12.18;63.73
46682;BME280;34101;53.430;-2.224;2023-04-23T06:11:04;99576.35;;;12.16;64.28
46682;BME280;34101;53.430;-2.224;2023-04-23T06:13:31;99578.34;;;12.17;64.04
46682;BME280;34101;53.430;-2.224;2023-04-23T06:15:58;99575.52;;;12.16;63.92
46682;BME280;34101;53.430;-2.224;2023-04-23T06:18:25;99571.09;;;12.19;63.97
46682;BME280;34101;53.430;-2.224;2023-04-23T06:20:52;99570.92;;;12.19;63.87
46682;BME280;34101;53.430;-2.224;2023-04-23T06:23:19;99573.52;;;12.20;63.96
46682;BME280;34101;53.430;-2.224;2023-04-23T06:25:46;99574.46;;;12.25;63.72
46682;BME280;34101;53.430;-2.224;2023-04-23T06:28:13;99573.87;;;12.26;63.16
46682;BME280;34101;53.430;-2.224;2023-04-23T06:30:40;99571.91;;;12.29;63.31
46682;BME280;34101;53.430;-2.224;2023-04-23T06:33:08;99569.95;;;12.32;63.06
46682;BME280;34101;53.430;-2.224;2023-04-23T06:35:35;99570.55;;;12.34;63.17
46682;BME280;34101;53.430;-2.224;2023-04-23T06:38:02;99575.13;;;12.41;63.37
46682;BME280;34101;53.430;-2.224;2023-04-23T06:40:30;99579.16;;;12.49;63.25
46682;BME280;34101;53.430;-2.224;2023-04-23T06:42:57;99576.36;;;12.55;62.81
46682;BME280;34101;53.430;-2.224;2023-04-23T06:45:25;99579.67;;;12.57;62.61
46682;BME280;34101;53.430;-2.224;2023-04-23T06:47:52;99579.93;;;12.60;62.55
46682;BME280;34101;53.430;-2.224;2023-04-23T06:50:20;99580.43;;;12.66;61.99
46682;BME280;34101;53.430;-2.224;2023-04-23T06:52:47;99584.99;;;12.67;62.00
46682;BME280;34101;53.430;-2.224;2023-04-23T06:55:14;99581.10;;;12.72;61.94
46682;BME280;34101;53.430;-2.224;2023-04-23T06:57:41;99581.60;;;12.68;61.66
46682;BME280;34101;53.430;-2.224;2023-04-23T07:00:10;99580.80;;;12.70;61.56
46682;BME280;34101;53.430;-2.224;2023-04-23T07:02:37;99581.90;;;12.71;61.04
46682;BME280;34101;53.430;-2.224;2023-04-23T07:05:05;99582.66;;;12.72;61.59
46682;BME280;34101;53.430;-2.224;2023-04-23T07:07:32;99586.56;;;12.75;61.26
46682;BME280;34101;53.430;-2.224;2023-04-23T07:10:00;99586.89;;;12.75;61.01
46682;BME280;34101;53.430;-2.224;2023-04-23T07:12:27;99587.63;;;12.74;60.71
46682;BME280;34101;53.430;-2.224;2023-04-23T07:14:54;99589.24;;;12.74;60.93
46682;BME280;34101;53.430;-2.224;2023-04-23T07:17:22;99588.10;;;12.77;60.98
46682;BME280;34101;53.430;-2.224;2023-04-23T07:19:49;99586.67;;;12.80;60.67
46682;BME280;34101;53.430;-2.224;2023-04-23T07:22:17;99585.41;;;12.85;60.44
46682;BME280;34101;53.430;-2.224;2023-04-23T07:24:44;99583.73;;;12.82;60.42
46682;BME280;34101;53.430;-2.224;2023-04-23T07:27:11;99583.46;;;12.86;60.23
46682;BME280;34101;53.430;-2.224;2023-04-23T07:29:39;99582.66;;;12.90;60.50
46682;BME280;34101;53.430;-2.224;2023-04-23T07:32:06;99581.49;;;12.95;60.00
46682;BME280;34101;53.430;-2.224;2023-04-23T07:34:34;99584.08;;;12.97;59.73
46682;BME280;34101;53.430;-2.224;2023-04-23T07:37:01;99587.17;;;13.04;59.80
46682;BME280;34101;53.430;-2.224;2023-04-23T07:39:28;99587.07;;;13.12;60.04
46682;BME280;34101;53.430;-2.224;2023-04-23T07:41:55;99585.54;;;13.14;59.31
46682;BME280;34101;53.430;-2.224;2023-04-23T07:44:22;99587.60;;;13.22;59.47
46682;BME280;34101;53.430;-2.224;2023-04-23T07:46:50;99587.48;;;13.27;59.17
46682;BME280;34101;53.430;-2.224;2023-04-23T07:49:18;99590.93;;;13.32;58.71
46682;BME280;34101;53.430;-2.224;2023-04-23T07:51:46;99595.06;;;13.41;58.68
46682;BME280;34101;53.430;-2.224;2023-04-23T07:54:13;99596.11;;;13.48;58.18
46682;BME280;34101;53.430;-2.224;2023-04-23T07:56:41;99594.64;;;13.53;58.28
46682;BME280;34101;53.430;-2.224;2023-04-23T07:59:08;99592.78;;;13.58;57.58
46682;BME280;34101;53.430;-2.224;2023-04-23T08:01:35;99594.83;;;13.62;57.37
46682;BME280;34101;53.430;-2.224;2023-04-23T08:04:03;99595.90;;;13.62;57.81
46682;BME280;34101;53.430;-2.224;2023-04-23T08:06:29;99601.13;;;13.66;57.35
46682;BME280;34101;53.430;-2.224;2023-04-23T08:08:57;99600.51;;;13.70;56.92
46682;BME280;34101;53.430;-2.224;2023-04-23T08:11:24;99605.07;;;13.73;56.98
46682;BME280;34101;53.430;-2.224;2023-04-23T08:13:52;99607.76;;;13.72;56.68
46682;BME280;34101;53.430;-2.224;2023-04-23T08:16:19;99607.29;;;13.75;56.80
46682;BME280;34101;53.430;-2.224;2023-04-23T08:18:46;99608.30;;;13.77;56.21
46682;BME280;34101;53.430;-2.224;2023-04-23T08:21:14;99609.76;;;13.82;56.54
46682;BME280;34101;53.430;-2.224;2023-04-23T08:23:41;99608.55;;;13.91;55.96
46682;BME280;34101;53.430;-2.224;2023-04-23T08:26:08;99612.66;;;14.00;56.39
46682;BME280;34101;53.430;-2.224;2023-04-23T08:28:35;99612.77;;;14.11;56.36
46682;BME280;34101;53.430;-2.224;2023-04-23T08:31:02;99613.34;;;14.21;55.55
46682;BME280;34101;53.430;-2.224;2023-04-23T08:33:30;99612.25;;;14.32;55.13
46682;BME280;34101;53.430;-2.224;2023-04-23T08:35:58;99612.24;;;14.44;54.28
46682;BME280;34101;53.430;-2.224;2023-04-23T08:38:25;99615.81;;;14.53;54.79
46682;BME280;34101;53.430;-2.224;2023-04-23T08:40:56;99618.05;;;14.63;54.24
46682;BME280;34101;53.430;-2.224;2023-04-23T08:43:30;99621.80;;;14.52;53.76
46682;BME280;34101;53.430;-2.224;2023-04-23T08:46:01;99622.17;;;14.53;54.23
46682;BME280;34101;53.430;-2.224;2023-04-23T08:48:29;99625.10;;;14.59;53.89
46682;BME280;34101;53.430;-2.224;2023-04-23T08:50:57;99627.65;;;14.60;53.19
46682;BME280;34101;53.430;-2.224;2023-04-23T08:53:30;99622.67;;;14.55;53.08
46682;BME280;34101;53.430;-2.224;2023-04-23T08:55:58;99623.20;;;14.61;52.91
46682;BME280;34101;53.430;-2.224;2023-04-23T08:58:27;99618.51;;;14.64;52.77
46682;BME280;34101;53.430;-2.224;2023-04-23T09:00:54;99613.39;;;14.76;52.56
46682;BME280;34101;53.430;-2.224;2023-04-23T09:03:22;99611.20;;;14.80;52.39
46682;BME280;34101;53.430;-2.224;2023-04-23T09:05:50;99609.29;;;14.86;51.87
46682;BME280;34101;53.430;-2.224;2023-04-23T09:08:19;99608.16;;;14.87;51.79
46682;BME280;34101;53.430;-2.224;2023-04-23T09:10:47;99605.45;;;14.86;51.74
46682;BME280;34101;53.430;-2.224;2023-04-23T09:13:14;99612.70;;;14.85;52.13
46682;BME280;34101;53.430;-2.224;2023-04-23T09:15:42;99611.45;;;14.73;52.70
46682;BME280;34101;53.430;-2.224;2023-04-23T09:18:09;99617.86;;;14.61;54.62
46682;BME280;34101;53.430;-2.224;2023-04-23T09:20:36;99619.46;;;14.51;56.73
46682;BME280;34101;53.430;-2.224;2023-04-23T09:23:06;99619.29;;;14.39;56.92
46682;BME280;34101;53.430;-2.224;2023-04-23T09:25:34;99618.41;;;14.26;57.97
46682;BME280;34101;53.430;-2.224;2023-04-23T09:28:01;99618.30;;;14.19;57.75
46682;BME280;34101;53.430;-2.224;2023-04-23T09:30:28;99620.10;;;14.03;57.21
46682;BME280;34101;53.430;-2.224;2023-04-23T09:32:55;99620.72;;;14.00;58.56
46682;BME280;34101;53.430;-2.224;2023-04-23T09:35:22;99619.27;;;14.08;57.86
46682;BME280;34101;53.430;-2.224;2023-04-23T09:37:54;99619.89;;;14.03;57.99
46682;BME280;34101;53.430;-2.224;2023-04-23T09:40:23;99619.99;;;14.07;57.15
46682;BME280;34101;53.430;-2.224;2023-04-23T09:42:53;99617.08;;;13.99;57.84
46682;BME280;34101;53.430;-2.224;2023-04-23T09:45:28;99624.01;;;13.99;56.93
46682;BME280;34101;53.430;-2.224;2023-04-23T09:47:56;99623.13;;;13.94;56.81
46682;BME280;34101;53.430;-2.224;2023-04-23T09:50:32;99627.99;;;13.90;56.04
46682;BME280;34101;53.430;-2.224;2023-04-23T09:53:00;99630.25;;;13.93;55.81
46682;BME280;34101;53.430;-2.224;2023-04-23T09:55:29;99633.17;;;13.99;55.47
46682;BME280;34101;53.430;-2.224;2023-04-23T09:57:57;99632.42;;;14.04;54.47
46682;BME280;34101;53.430;-2.224;2023-04-23T10:00:25;99631.41;;;14.13;54.57
46682;BME280;34101;53.430;-2.224;2023-04-23T10:02:52;99630.71;;;14.22;54.04
46682;BME280;34101;53.430;-2.224;2023-04-23T10:05:21;99631.70;;;14.28;53.78
46682;BME280;34101;53.430;-2.224;2023-04-23T10:07:48;99633.15;;;14.28;54.03
46682;BME280;34101;53.430;-2.224;2023-04-23T10:10:16;99634.53;;;14.33;52.30
46682;BME280;34101;53.430;-2.224;2023-04-23T10:12:44;99638.38;;;14.26;52.33
46682;BME280;34101;53.430;-2.224;2023-04-23T10:15:12;99641.46;;;14.30;53.04
46682;BME280;34101;53.430;-2.224;2023-04-23T10:17:40;99643.23;;;14.25;52.88
46682;BME280;34101;53.430;-2.224;2023-04-23T10:20:09;99644.97;;;14.24;53.38
46682;BME280;34101;53.430;-2.224;2023-04-23T10:22:37;99646.37;;;14.10;53.61
46682;BME280;34101;53.430;-2.224;2023-04-23T10:25:08;99649.63;;;14.00;54.57
46682;BME280;34101;53.430;-2.224;2023-04-23T10:27:37;99650.01;;;13.99;55.15
46682;BME280;34101;53.430;-2.224;2023-04-23T10:30:07;99650.13;;;13.99;54.82
46682;BME280;34101;53.430;-2.224;2023-04-23T10:32:35;99656.14;;;13.93;54.85
46682;BME280;34101;53.430;-2.224;2023-04-23T10:35:03;99660.87;;;13.91;54.83
46682;BME280;34101;53.430;-2.224;2023-04-23T10:37:31;99661.46;;;13.92;55.16
46682;BME280;34101;53.430;-2.224;2023-04-23T10:40:05;99665.72;;;13.95;55.40
46682;BME280;34101;53.430;-2.224;2023-04-23T10:42:33;99667.12;;;13.96;54.67
46682;BME280;34101;53.430;-2.224;2023-04-23T10:45:11;99664.61;;;13.91;54.80
46682;BME280;34101;53.430;-2.224;2023-04-23T10:47:41;99666.43;;;13.87;54.85
46682;BME280;34101;53.430;-2.224;2023-04-23T10:50:25;99667.56;;;13.84;55.18
46682;BME280;34101;53.430;-2.224;2023-04-23T10:52:54;99671.81;;;13.81;54.96
46682;BME280;34101;53.430;-2.224;2023-04-23T10:55:23;99672.95;;;13.71;55.25
46682;BME280;34101;53.430;-2.224;2023-04-23T10:57:57;99673.54;;;13.69;55.40
46682;BME280;34101;53.430;-2.224;2023-04-23T11:00:43;99673.55;;;13.63;55.51
46682;BME280;34101;53.430;-2.224;2023-04-23T11:03:29;99673.20;;;13.61;55.62
46682;BME280;34101;53.430;-2.224;2023-04-23T11:06:02;99673.12;;;13.62;55.84
46682;BME280;34101;53.430;-2.224;2023-04-23T11:08:30;99672.44;;;13.58;55.44
46682;BME280;34101;53.430;-2.224;2023-04-23T11:11:00;99676.43;;;13.57;55.32
46682;BME280;34101;53.430;-2.224;2023-04-23T11:13:28;99675.49;;;13.45;54.84
46682;BME280;34101;53.430;-2.224;2023-04-23T11:16:27;99676.68;;;13.42;55.47
46682;BME280;34101;53.430;-2.224;2023-04-23T11:18:56;99679.32;;;13.45;55.38
46682;BME280;34101;53.430;-2.224;2023-04-23T11:21:55;99680.47;;;13.50;54.80
46682;BME280;34101;53.430;-2.224;2023-04-23T11:24:22;99679.08;;;13.53;55.14
46682;BME280;34101;53.430;-2.224;2023-04-23T11:26:51;99678.13;;;13.64;54.87
46682;BME280;34101;53.430;-2.224;2023-04-23T11:29:20;99676.67;;;13.72;54.89
46682;BME280;34101;53.430;-2.224;2023-04-23T11:31:48;99675.06;;;13.84;54.84
46682;BME280;34101;53.430;-2.224;2023-04-23T11:34:15;99675.59;;;13.90;54.03
46682;BME280;34101;53.430;-2.224;2023-04-23T11:36:43;99675.38;;;13.94;54.31
46682;BME280;34101;53.430;-2.224;2023-04-23T11:39:11;99678.12;;;14.01;54.10
46682;BME280;34101;53.430;-2.224;2023-04-23T11:41:43;99678.95;;;14.07;53.89
46682;BME280;34101;53.430;-2.224;2023-04-23T11:44:12;99679.96;;;14.21;53.93
46682;BME280;34101;53.430;-2.224;2023-04-23T11:46:39;99685.52;;;14.33;53.20
46682;BME280;34101;53.430;-2.224;2023-04-23T11:49:06;99688.11;;;14.42;52.84
46682;BME280;34101;53.430;-2.224;2023-04-23T11:51:34;99690.66;;;14.52;52.68
46682;BME280;34101;53.430;-2.224;2023-04-23T11:54:03;99688.00;;;14.71;52.70
46682;BME280;34101;53.430;-2.224;2023-04-23T11:56:30;99689.32;;;14.93;52.28
46682;BME280;34101;53.430;-2.224;2023-04-23T11:58:58;99685.26;;;15.06;51.33
46682;BME280;34101;53.430;-2.224;2023-04-23T12:01:25;99681.96;;;15.37;51.39
46682;BME280;34101;53.430;-2.224;2023-04-23T12:03:52;99679.27;;;15.67;50.20
46682;BME280;34101;53.430;-2.224;2023-04-23T12:06:20;99677.80;;;15.96;49.45
46682;BME280;34101;53.430;-2.224;2023-04-23T12:08:47;99680.33;;;16.21;48.94
46682;BME280;34101;53.430;-2.224;2023-04-23T12:11:22;99679.91;;;16.28;47.65
46682;BME280;34101;53.430;-2.224;2023-04-23T12:13:49;99678.25;;;16.48;47.53
46682;BME280;34101;53.430;-2.224;2023-04-23T12:16:17;99683.90;;;16.75;47.19
46682;BME280;34101;53.430;-2.224;2023-04-23T12:19:00;99686.06;;;16.84;45.77
46682;BME280;34101;53.430;-2.224;2023-04-23T12:21:28;99686.08;;;16.88;45.84
46682;BME280;34101;53.430;-2.224;2023-04-23T12:23:56;99690.00;;;17.01;44.86
46682;BME280;34101;53.430;-2.224;2023-04-23T12:26:24;99690.65;;;17.17;45.27
46682;BME280;34101;53.430;-2.224;2023-04-23T12:28:53;99693.07;;;17.25;44.45
46682;BME280;34101;53.430;-2.224;2023-04-23T12:31:22;99692.96;;;17.28;43.02
46682;BME280;34101;53.430;-2.224;2023-04-23T12:34:01;99690.89;;;17.37;42.69
46682;BME280;34101;53.430;-2.224;2023-04-23T12:36:30;99691.48;;;17.46;43.00
46682;BME280;34101;53.430;-2.224;2023-04-23T12:39:30;99690.32;;;17.70;42.32
46682;BME280;34101;53.430;-2.224;2023-04-23T12:41:59;99689.67;;;17.87;41.74
46682;BME280;34101;53.430;-2.224;2023-04-23T12:44:26;99694.11;;;17.83;41.39
46682;BME280;34101;53.430;-2.224;2023-04-23T12:46:55;99692.39;;;17.61;41.42
46682;BME280;34101;53.430;-2.224;2023-04-23T12:49:23;99697.19;;;17.38;42.91
46682;BME280;34101;53.430;-2.224;2023-04-23T12:51:50;99696.40;;;17.35;42.53
46682;BME280;34101;53.430;-2.224;2023-04-23T12:54:18;99694.39;;;17.34;42.84
46682;BME280;34101;53.430;-2.224;2023-04-23T12:56:45;99693.76;;;17.37;42.67
46682;BME280;34101;53.430;-2.224;2023-04-23T12:59:13;99690.68;;;17.40;42.78